King Philippos — 9HA3023 — position and weather

sailwx.info

Track history (hours):
 
Tides and Currents Weather Stations Pressure Air Temp Water Temp Dewpoint Dewpoint Depression Visibility Wind Speed Wind Dir Waves Ship Positions

King Philippos

Last reported at 2017-Feb-17 00:11 UTC. Time now 2017-Feb-20 11:10 UTC.
Position N 01°15' E 104°03'.

Length 250 m; draft 11 m.

Type: Tanker. MMSI: 229046000.

Date/timePositionNaut miles runAvg speedWind from/ knotsBaromVisibWave heightAir tempDewpointWater temp
2017-Feb-17 00:11N 01°15' E 104°03'610.1
2017-Feb-16 23:33N 01°13' E 103°57'8 7.8
2017-Feb-16 22:33N 01°10' E 103°50'8 7.9
2017-Feb-16 21:33N 01°05' E 103°44'7 6.8
2017-Feb-16 20:33N 01°04' E 103°37'5 5.1
2017-Feb-16 19:33N 01°08' E 103°35'0 0.2
2017-Feb-16 18:29N 01°08' E 103°35'1 1.0
2017-Feb-16 17:34N 01°08' E 103°34'0 0.0
2017-Feb-16 10:13N 01°08' E 103°34'0 0.0
2017-Feb-16 09:19N 01°08' E 103°34'0 0.1
2017-Feb-16 08:16N 01°08' E 103°34'0 0.1
2017-Feb-16 07:28N 01°08' E 103°34'0 0.0
2017-Feb-15 21:31N 01°08' E 103°34'0 0.0
2017-Feb-15 20:16N 01°08' E 103°34'0 0.1
2017-Feb-15 19:31N 01°08' E 103°34'0 0.0
2017-Feb-15 18:25N 01°08' E 103°34'0 0.0
2017-Feb-15 17:28N 01°08' E 103°34'0 0.1
2017-Feb-15 15:31N 01°08' E 103°34'0 0.1
2017-Feb-15 14:28N 01°08' E 103°34'0 0.0
2017-Feb-15 13:28N 01°08' E 103°34'0 0.0
2017-Feb-15 12:25N 01°08' E 103°34'0 0.0
2017-Feb-15 10:25N 01°08' E 103°34'0 0.1
2017-Feb-15 08:31N 01°08' E 103°34'0 0.0
2017-Feb-15 06:31N 01°08' E 103°34'0 0.1
2017-Feb-15 02:25N 01°08' E 103°34'0 0.1
2017-Feb-15 01:34N 01°08' E 103°34'1 0.8
2017-Feb-15 00:31N 01°08' E 103°34'0 0.1
2017-Feb-14 23:25N 01°08' E 103°34'0 0.1
2017-Feb-14 22:31N 01°08' E 103°34'0 0.0
2017-Feb-14 21:31N 01°08' E 103°34'0 0.1
2017-Feb-14 20:28N 01°08' E 103°34'0 0.1
2017-Feb-14 19:28N 01°07' E 103°35'0 0.0
2017-Feb-14 18:28N 01°07' E 103°35'0 0.0
2017-Feb-14 17:31N 01°08' E 103°35'5 5.4
2017-Feb-14 16:33N 01°11' E 103°39'6 5.7
2017-Feb-14 15:33N 01°08' E 103°44'1010.1
2017-Feb-14 14:34N 01°13' E 103°53'5 3.9
2017-Feb-14 13:23N 01°16' E 103°56'0 0.1
2017-Feb-14 12:32N 01°16' E 103°56'0 0.0
2017-Feb-14 11:32N 01°16' E 103°56'0 0.0
2017-Feb-14 09:29N 01°16' E 103°56'0 0.0
2017-Feb-14 08:32N 01°16' E 103°56'0 0.0
2017-Feb-14 07:32N 01°16' E 103°56'0 0.1
2017-Feb-14 06:31N 01°16' E 103°56'0 0.0
2017-Feb-14 05:26N 01°16' E 103°56'0 0.0
2017-Feb-14 04:32N 01°16' E 103°56'0 0.0
2017-Feb-14 03:31N 01°16' E 103°56'0 0.0
2017-Feb-14 02:31N 01°16' E 103°56'0 0.1
2017-Feb-14 01:33N 01°16' E 103°56'5 4.8
2017-Feb-14 00:33N 01°16' E 104°01'  
Track history (hours):
 
Tides and Currents Weather Stations Pressure Air Temp Water Temp Dewpoint Dewpoint Depression Visibility Wind Speed Wind Dir Waves Ship Positions

King Philippos

Last reported at 2017-Feb-17 00:11 UTC. Time now 2017-Feb-20 11:10 UTC.
Position N 01°15' E 104°03'.

Length 250 m; draft 11 m.

Type: Tanker. MMSI: 229046000.

Date/timePositionNaut miles runAvg speedWind from/ knotsBaromVisibWave heightAir tempDewpointWater temp
2017-Feb-17 00:11N 01°15' E 104°03'610.1
2017-Feb-16 23:33N 01°13' E 103°57'8 7.8
2017-Feb-16 22:33N 01°10' E 103°50'8 7.9
2017-Feb-16 21:33N 01°05' E 103°44'7 6.8
2017-Feb-16 20:33N 01°04' E 103°37'5 5.1
2017-Feb-16 19:33N 01°08' E 103°35'0 0.2
2017-Feb-16 18:29N 01°08' E 103°35'1 1.0
2017-Feb-16 17:34N 01°08' E 103°34'0 0.0
2017-Feb-16 10:13N 01°08' E 103°34'0 0.0
2017-Feb-16 09:19N 01°08' E 103°34'0 0.1
2017-Feb-16 08:16N 01°08' E 103°34'0 0.1
2017-Feb-16 07:28N 01°08' E 103°34'0 0.0
2017-Feb-15 21:31N 01°08' E 103°34'0 0.0
2017-Feb-15 20:16N 01°08' E 103°34'0 0.1
2017-Feb-15 19:31N 01°08' E 103°34'0 0.0
2017-Feb-15 18:25N 01°08' E 103°34'0 0.0
2017-Feb-15 17:28N 01°08' E 103°34'0 0.1
2017-Feb-15 15:31N 01°08' E 103°34'0 0.1
2017-Feb-15 14:28N 01°08' E 103°34'0 0.0
2017-Feb-15 13:28N 01°08' E 103°34'0 0.0
2017-Feb-15 12:25N 01°08' E 103°34'0 0.0
2017-Feb-15 10:25N 01°08' E 103°34'0 0.1
2017-Feb-15 08:31N 01°08' E 103°34'0 0.0
2017-Feb-15 06:31N 01°08' E 103°34'0 0.1
2017-Feb-15 02:25N 01°08' E 103°34'0 0.1
2017-Feb-15 01:34N 01°08' E 103°34'1 0.8
2017-Feb-15 00:31N 01°08' E 103°34'0 0.1
2017-Feb-14 23:25N 01°08' E 103°34'0 0.1
2017-Feb-14 22:31N 01°08' E 103°34'0 0.0
2017-Feb-14 21:31N 01°08' E 103°34'0 0.1
2017-Feb-14 20:28N 01°08' E 103°34'0 0.1
2017-Feb-14 19:28N 01°07' E 103°35'0 0.0
2017-Feb-14 18:28N 01°07' E 103°35'0 0.0
2017-Feb-14 17:31N 01°08' E 103°35'5 5.4
2017-Feb-14 16:33N 01°11' E 103°39'6 5.7
2017-Feb-14 15:33N 01°08' E 103°44'1010.1
2017-Feb-14 14:34N 01°13' E 103°53'5 3.9
2017-Feb-14 13:23N 01°16' E 103°56'0 0.1
2017-Feb-14 12:32N 01°16' E 103°56'0 0.0
2017-Feb-14 11:32N 01°16' E 103°56'0 0.0
2017-Feb-14 09:29N 01°16' E 103°56'0 0.0
2017-Feb-14 08:32N 01°16' E 103°56'0 0.0
2017-Feb-14 07:32N 01°16' E 103°56'0 0.1
2017-Feb-14 06:31N 01°16' E 103°56'0 0.0
2017-Feb-14 05:26N 01°16' E 103°56'0 0.0
2017-Feb-14 04:32N 01°16' E 103°56'0 0.0
2017-Feb-14 03:31N 01°16' E 103°56'0 0.0
2017-Feb-14 02:31N 01°16' E 103°56'0 0.1
2017-Feb-14 01:33N 01°16' E 103°56'5 4.8
2017-Feb-14 00:33N 01°16' E 104°01'  

Dump ship's entire track history